createdAt,value
2019-06-01T00:02:16.189Z,10.10
2019-06-01T00:04:47.105Z,9.97
2019-06-01T00:07:16.797Z,10.18
2019-06-01T00:09:47.252Z,10.23
2019-06-01T00:12:16.767Z,10.80
2019-06-01T00:14:48.136Z,10.38
2019-06-01T00:17:17.723Z,10.37
2019-06-01T00:19:48.262Z,9.93
2019-06-01T00:22:17.943Z,9.85
2019-06-01T00:24:48.027Z,9.73
2019-06-01T00:27:17.710Z,10.60
2019-06-01T00:29:49.510Z,10.45
2019-06-01T00:32:19.058Z,9.87
2019-06-01T00:34:49.652Z,10.03
2019-06-01T00:37:19.367Z,10.83
2019-06-01T00:39:49.928Z,10.58
2019-06-01T00:42:19.549Z,9.57
2019-06-01T00:44:50.447Z,10.20
2019-06-01T00:47:20.057Z,10.27
2019-06-01T00:49:50.989Z,10.07
2019-06-01T00:52:20.604Z,9.97
2019-06-01T00:54:51.414Z,9.97
2019-06-01T00:57:22.177Z,9.10
2019-06-01T00:59:53.695Z,9.65
2019-06-01T01:02:23.533Z,9.47
2019-06-01T01:05:02.950Z,9.03
2019-06-01T01:07:32.449Z,9.87
2019-06-01T01:10:01.947Z,9.10
2019-06-01T01:12:33.050Z,9.97
2019-06-01T01:15:02.851Z,9.17
2019-06-01T01:17:32.442Z,9.40
2019-06-01T01:20:02.077Z,9.27
2019-06-01T01:22:31.820Z,9.83
2019-06-01T01:25:01.758Z,9.60
2019-06-01T01:27:31.344Z,8.87
2019-06-01T01:30:00.929Z,8.67
2019-06-01T01:32:30.637Z,8.97
2019-06-01T01:35:00.100Z,9.03
2019-06-01T01:37:30.039Z,9.27
2019-06-01T01:39:59.487Z,9.53
2019-06-01T01:42:28.976Z,9.73
2019-06-01T01:44:58.693Z,10.20
2019-06-01T01:47:29.147Z,10.30
2019-06-01T01:49:58.619Z,10.77
2019-06-01T01:52:28.246Z,10.27
2019-06-01T01:54:58.905Z,10.37
2019-06-01T01:57:28.538Z,10.60
2019-06-01T01:59:59.397Z,10.17
2019-06-01T02:02:28.934Z,11.07
2019-06-01T02:04:58.388Z,11.20
2019-06-01T02:07:27.998Z,10.50
2019-06-01T02:09:57.486Z,10.40
2019-06-01T02:12:27.511Z,10.83
2019-06-01T02:14:57.714Z,11.27
2019-06-01T02:17:27.309Z,10.73
2019-06-01T02:19:56.881Z,10.30
2019-06-01T02:22:27.583Z,10.13
2019-06-01T02:24:57.803Z,9.67
2019-06-01T02:27:27.748Z,10.20
2019-06-01T02:29:57.338Z,9.50
2019-06-01T02:32:26.846Z,9.70
2019-06-01T02:34:56.450Z,9.17
2019-06-01T02:37:29.714Z,8.80
2019-06-01T02:40:00.931Z,10.03
2019-06-01T02:42:30.507Z,9.77
2019-06-01T02:45:01.549Z,9.20
2019-06-01T02:47:31.671Z,9.77
2019-06-01T02:50:04.419Z,9.23
2019-06-01T02:52:35.231Z,9.33
2019-06-01T02:55:06.487Z,9.20
2019-06-01T02:57:36.090Z,9.50
2019-06-01T03:00:06.888Z,8.80
2019-06-01T03:02:37.406Z,8.93
2019-06-01T03:05:07.713Z,9.23
2019-06-01T03:07:40.423Z,8.85
2019-06-01T03:10:10.033Z,8.37
2019-06-01T03:12:46.519Z,8.97
2019-06-01T03:15:17.191Z,8.65
2019-06-01T03:17:51.267Z,8.97
2019-06-01T03:20:20.939Z,8.27
2019-06-01T03:22:53.389Z,8.23
2019-06-01T03:25:22.895Z,8.13
2019-06-01T03:27:55.851Z,7.50
2019-06-01T03:30:50.932Z,8.07
2019-06-01T03:33:20.557Z,7.93
2019-06-01T03:35:50.032Z,8.23
2019-06-01T03:38:19.823Z,8.03
2019-06-01T03:40:49.285Z,7.50
2019-06-01T03:43:19.525Z,7.27
2019-06-01T03:45:49.071Z,7.87
2019-06-01T03:48:18.546Z,7.97
2019-06-01T03:50:48.010Z,7.87
2019-06-01T03:53:17.523Z,7.70
2019-06-01T03:55:47.029Z,8.03
2019-06-01T03:58:16.638Z,7.13
2019-06-01T04:00:46.342Z,7.70
2019-06-01T04:03:15.865Z,7.67
2019-06-01T04:05:45.305Z,7.60
2019-06-01T04:08:15.169Z,7.80
2019-06-01T04:10:44.612Z,7.93
2019-06-01T04:13:14.195Z,7.80
2019-06-01T04:15:43.779Z,7.83
2019-06-01T04:18:13.905Z,7.87
2019-06-01T04:20:44.706Z,7.05
2019-06-01T04:23:14.323Z,7.50
2019-06-01T04:25:43.793Z,7.57
2019-06-01T04:28:13.341Z,7.78
2019-06-01T04:30:44.921Z,7.15
2019-06-01T04:33:14.355Z,8.20
2019-06-01T04:35:43.834Z,7.23
2019-06-01T04:38:13.515Z,7.33
2019-06-01T04:40:43.079Z,7.60
2019-06-01T04:43:14.008Z,7.77
2019-06-01T04:45:43.920Z,7.67
2019-06-01T04:48:14.681Z,7.50
2019-06-01T04:50:44.249Z,7.50
2019-06-01T04:53:15.033Z,7.30
2019-06-01T04:55:44.822Z,9.03
2019-06-01T04:58:15.069Z,8.50
2019-06-01T05:00:44.563Z,7.58
2019-06-01T05:03:15.225Z,7.42
2019-06-01T05:05:45.026Z,7.67
2019-06-01T05:08:15.667Z,9.30
2019-06-01T05:10:45.374Z,8.40
2019-06-01T05:13:15.686Z,9.37
2019-06-01T05:15:45.372Z,10.40
2019-06-01T05:18:18.440Z,8.40
2019-06-01T05:20:46.668Z,9.60
2019-06-01T05:23:16.953Z,8.47
2019-06-01T05:25:46.604Z,8.75
2019-06-01T05:28:17.367Z,8.97
2019-06-01T05:30:47.201Z,8.55
2019-06-01T05:33:29.483Z,9.75
2019-06-01T05:35:47.900Z,8.60
2019-06-01T05:38:19.007Z,8.53
2019-06-01T05:40:48.478Z,10.72
2019-06-01T05:43:21.117Z,9.30
2019-06-01T05:45:49.339Z,8.50
2019-06-01T05:48:24.714Z,8.67
2019-06-01T05:50:50.566Z,8.05
2019-06-01T05:53:20.249Z,7.90
2019-06-01T05:55:49.794Z,8.43
2019-06-01T05:58:19.821Z,8.30
2019-06-01T06:00:49.942Z,8.37
2019-06-01T06:03:22.324Z,9.65
2019-06-01T06:05:50.683Z,9.33
2019-06-01T06:08:20.259Z,9.83
2019-06-01T06:10:49.853Z,9.78
2019-06-01T06:13:21.641Z,9.50
2019-06-01T06:15:51.605Z,10.30
2019-06-01T06:18:21.989Z,11.90
2019-06-01T06:20:51.629Z,11.00
2019-06-01T06:23:22.629Z,12.30
2019-06-01T06:25:52.407Z,13.50
2019-06-01T06:28:22.958Z,12.00
2019-06-01T06:30:53.683Z,12.77
2019-06-01T06:33:23.710Z,11.47
2019-06-01T06:35:53.331Z,11.53
2019-06-01T06:38:24.079Z,11.63
2019-06-01T06:40:53.667Z,11.37
2019-06-01T06:43:31.030Z,9.60
2019-06-01T06:45:54.850Z,11.28
2019-06-01T06:48:25.264Z,11.18
2019-06-01T06:50:54.971Z,11.00
2019-06-01T06:53:33.560Z,10.10
2019-06-01T06:55:56.154Z,10.70
2019-06-01T06:58:26.536Z,10.32
2019-06-01T07:00:56.654Z,10.18
2019-06-01T07:03:27.195Z,9.80
2019-06-01T07:05:56.724Z,9.95
2019-06-01T07:08:26.630Z,8.25
2019-06-01T07:10:56.165Z,9.15
2019-06-01T07:13:25.988Z,10.20
2019-06-01T07:15:55.584Z,9.00
2019-06-01T07:18:25.781Z,8.43
2019-06-01T07:20:55.516Z,10.28
2019-06-01T07:23:25.946Z,9.43
2019-06-01T07:25:55.563Z,10.57
2019-06-01T07:28:26.140Z,10.75
2019-06-01T07:30:55.856Z,12.30
2019-06-01T07:33:26.435Z,11.23
2019-06-01T07:35:56.330Z,11.27
2019-06-01T07:38:26.804Z,9.20
2019-06-01T07:40:56.460Z,9.73
2019-06-01T07:43:26.832Z,9.87
2019-06-01T07:45:56.503Z,9.93
2019-06-01T07:48:27.138Z,9.75
2019-06-01T07:50:59.232Z,8.63
2019-06-01T07:53:29.544Z,9.23
2019-06-01T07:55:59.141Z,9.08
2019-06-01T07:58:28.991Z,9.38
2019-06-01T08:00:59.065Z,8.30
2019-06-01T08:03:32.593Z,9.03
2019-06-01T08:05:59.985Z,8.78
2019-06-01T08:08:29.654Z,8.80
2019-06-01T08:11:00.282Z,7.62
2019-06-01T08:13:33.427Z,7.55
2019-06-01T08:16:01.029Z,7.70
2019-06-01T08:18:30.443Z,8.63
2019-06-01T08:21:00.020Z,7.93
2019-06-01T08:23:34.168Z,9.50
2019-06-01T08:26:03.732Z,8.33
2019-06-01T08:28:35.236Z,7.20
2019-06-01T08:31:04.816Z,7.70
2019-06-01T08:33:35.015Z,7.73
2019-06-01T08:36:05.065Z,7.62
2019-06-01T08:38:34.880Z,8.33
2019-06-01T08:41:04.395Z,6.92
2019-06-01T08:43:34.011Z,8.15
2019-06-01T08:46:05.162Z,6.90
2019-06-01T08:48:34.648Z,7.10
2019-06-01T08:51:04.194Z,7.10
2019-06-01T08:53:34.276Z,8.13
2019-06-01T08:56:04.053Z,6.97
2019-06-01T08:58:34.645Z,7.30
2019-06-01T09:01:04.442Z,7.10
2019-06-01T09:03:39.902Z,6.70
2019-06-01T09:06:05.862Z,6.60
2019-06-01T09:08:35.503Z,6.15
2019-06-01T09:11:05.097Z,6.90
2019-06-01T09:13:35.471Z,7.97
2019-06-01T09:16:05.461Z,6.80
2019-06-01T09:18:35.818Z,7.12
2019-06-01T09:21:05.578Z,6.67
2019-06-01T09:23:37.107Z,6.37
2019-06-01T09:26:06.478Z,7.12
2019-06-01T09:28:36.271Z,7.22
2019-06-01T09:31:06.038Z,6.60
2019-06-01T09:33:36.863Z,6.70
2019-06-01T09:36:06.551Z,6.90
2019-06-01T09:38:36.230Z,7.80
2019-06-01T09:41:06.047Z,7.12
2019-06-01T09:43:35.663Z,7.08
2019-06-01T09:46:05.436Z,7.65
2019-06-01T09:48:35.666Z,6.33
2019-06-01T09:51:05.345Z,6.65
2019-06-01T09:53:36.126Z,5.85
2019-06-01T09:56:05.970Z,6.72
2019-06-01T09:58:36.897Z,6.30
2019-06-01T10:01:06.684Z,5.87
2019-06-01T10:03:36.552Z,6.03
2019-06-01T10:06:07.370Z,5.97
2019-06-01T10:08:38.166Z,6.00
2019-06-01T10:11:08.444Z,6.55
2019-06-01T10:13:38.560Z,6.25
2019-06-01T10:16:08.570Z,6.62
2019-06-01T10:18:38.945Z,5.03
2019-06-01T10:21:10.019Z,6.53
2019-06-01T10:23:40.053Z,7.00
2019-06-01T10:26:09.525Z,7.47
2019-06-01T10:28:39.834Z,6.73
2019-06-01T10:31:09.933Z,6.72
2019-06-01T10:33:39.471Z,5.45
2019-06-01T10:36:19.822Z,5.70
2019-06-01T10:38:41.467Z,5.83
2019-06-01T10:41:11.080Z,7.80
2019-06-01T10:43:41.757Z,5.95
2019-06-01T10:46:14.203Z,6.53
2019-06-01T10:48:45.822Z,6.27
2019-06-01T10:51:15.291Z,5.60
2019-06-01T10:53:44.898Z,4.80
2019-06-01T10:56:14.454Z,5.70
2019-06-01T10:58:59.415Z,6.15
2019-06-01T11:01:15.263Z,5.05
2019-06-01T11:03:44.975Z,5.75
2019-06-01T11:06:14.411Z,4.90
2019-06-01T11:08:43.919Z,5.60
2019-06-01T11:11:13.759Z,4.50
2019-06-01T11:13:43.379Z,4.45
2019-06-01T11:16:12.919Z,4.45
2019-06-01T11:18:43.619Z,4.40
2019-06-01T11:21:13.203Z,4.67
2019-06-01T11:23:46.133Z,5.06
2019-06-01T11:26:14.125Z,4.70
2019-06-01T11:28:44.344Z,5.55
2019-06-01T11:31:14.046Z,5.15
2019-06-01T11:33:44.272Z,4.20
2019-06-01T11:36:14.036Z,4.83
2019-06-01T11:38:45.129Z,4.08
2019-06-01T11:41:18.336Z,4.95
2019-06-01T11:43:46.225Z,4.80
2019-06-01T11:46:15.929Z,3.95
2019-06-01T11:48:45.540Z,4.23
2019-06-01T11:51:15.031Z,4.33
2019-06-01T11:53:45.631Z,4.87
2019-06-01T11:56:15.391Z,4.00
2019-06-01T11:58:45.616Z,4.23
2019-06-01T12:01:15.462Z,3.90
2019-06-01T12:03:46.212Z,4.13
2019-06-01T12:06:15.759Z,4.20
2019-06-01T12:08:46.319Z,4.07
2019-06-01T12:11:16.259Z,4.33
2019-06-01T12:13:46.554Z,4.10
2019-06-01T12:16:16.709Z,3.97
2019-06-01T12:18:46.900Z,3.90
2019-06-01T12:21:16.592Z,3.60
2019-06-01T12:23:47.653Z,3.92
2019-06-01T12:26:17.257Z,3.67
2019-06-01T12:28:47.886Z,3.80
2019-06-01T12:31:17.728Z,3.40
2019-06-01T12:33:48.664Z,3.85
2019-06-01T12:36:18.396Z,3.67
2019-06-01T12:38:52.215Z,3.70
2019-06-01T12:41:23.439Z,3.80
2019-06-01T12:44:12.433Z,4.10
2019-06-01T12:46:43.689Z,3.93
2019-06-01T12:49:13.468Z,3.50
2019-06-01T12:51:44.541Z,3.70
2019-06-01T12:54:15.069Z,5.57
2019-06-01T12:56:47.809Z,3.80
2019-06-01T12:59:17.700Z,4.10
2019-06-01T13:01:47.386Z,3.60
2019-06-01T13:04:17.806Z,4.60
2019-06-01T13:06:52.297Z,3.40
2019-06-01T13:09:21.420Z,4.07
2019-06-01T13:11:51.522Z,4.00
2019-06-01T13:14:21.211Z,4.07
2019-06-01T13:17:06.274Z,3.30
2019-06-01T13:19:24.007Z,4.05
2019-06-01T13:21:53.512Z,3.77
2019-06-01T13:24:23.019Z,3.43
2019-06-01T13:26:52.777Z,4.37
2019-06-01T13:29:25.320Z,3.95
2019-06-01T13:31:54.965Z,3.40
2019-06-01T13:34:26.094Z,3.52
2019-06-01T13:36:55.612Z,3.40
2019-06-01T13:39:25.104Z,3.17
2019-06-01T13:41:54.775Z,3.23
2019-06-01T13:44:24.337Z,3.00
2019-06-01T13:46:53.815Z,3.10
2019-06-01T13:49:23.345Z,2.97
2019-06-01T13:51:52.875Z,3.30
2019-06-01T13:54:22.432Z,3.80
2019-06-01T13:56:53.086Z,3.35
2019-06-01T13:59:23.191Z,2.65
2019-06-01T14:01:53.196Z,3.05
2019-06-01T14:04:22.920Z,3.10
2019-06-01T14:06:53.144Z,2.62
2019-06-01T14:09:23.274Z,3.25
2019-06-01T14:11:53.509Z,2.73
2019-06-01T14:14:23.051Z,2.50
2019-06-01T14:16:53.671Z,2.50
2019-06-01T14:19:23.338Z,4.10
2019-06-01T14:21:54.212Z,4.00
2019-06-01T14:24:23.821Z,3.70
2019-06-01T14:26:54.362Z,3.07
2019-06-01T14:29:24.049Z,5.10
2019-06-01T14:31:55.335Z,4.77
2019-06-01T14:34:25.552Z,4.30
2019-06-01T14:36:56.590Z,5.55
2019-06-01T14:39:26.299Z,4.97
2019-06-01T14:41:55.863Z,7.53
2019-06-01T14:44:25.524Z,6.95
2019-06-01T14:47:05.034Z,7.20
2019-06-01T14:49:26.267Z,6.93
2019-06-01T14:51:55.846Z,7.43
2019-06-01T14:54:25.991Z,7.45
2019-06-01T14:56:55.890Z,6.23
2019-06-01T14:59:25.541Z,6.00
2019-06-01T15:01:56.184Z,6.40
2019-06-01T15:04:26.168Z,6.93
2019-06-01T15:06:56.484Z,6.97
2019-06-01T15:09:26.150Z,7.30
2019-06-01T15:11:56.568Z,5.93
2019-06-01T15:14:26.225Z,6.90
2019-06-01T15:16:56.213Z,6.80
2019-06-01T15:19:25.868Z,6.45
2019-06-01T15:21:56.232Z,6.67
2019-06-01T15:24:26.267Z,7.27
2019-06-01T15:26:58.961Z,7.10
2019-06-01T15:29:29.086Z,6.70
2019-06-01T15:32:00.040Z,5.97
2019-06-01T15:34:30.077Z,6.60
2019-06-01T15:36:59.799Z,7.20
2019-06-01T15:39:29.424Z,6.00
2019-06-01T15:41:59.664Z,6.70
2019-06-01T15:44:29.357Z,6.90
2019-06-01T15:46:59.742Z,5.77
2019-06-01T15:49:29.553Z,5.87
2019-06-01T15:52:02.056Z,7.47
2019-06-01T15:54:31.819Z,5.97
2019-06-01T15:57:02.715Z,5.50
2019-06-01T15:59:32.693Z,6.03
2019-06-01T16:02:03.458Z,6.13
2019-06-01T16:04:33.414Z,6.50
2019-06-01T16:07:03.482Z,5.70
2019-06-01T16:09:42.593Z,5.33
2019-06-01T16:12:04.425Z,5.70
2019-06-01T16:14:33.957Z,5.03
2019-06-01T16:17:04.796Z,4.83
2019-06-01T16:19:34.429Z,4.97
2019-06-01T16:22:04.975Z,5.20
2019-06-01T16:24:34.572Z,4.70
2019-06-01T16:27:04.736Z,4.53
2019-06-01T16:29:34.588Z,4.40
2019-06-01T16:32:05.076Z,5.33
2019-06-01T16:34:36.121Z,5.13
2019-06-01T16:37:05.705Z,4.60
2019-06-01T16:39:35.216Z,4.50
2019-06-01T16:42:06.099Z,5.00
2019-06-01T16:44:35.937Z,4.47
2019-06-01T16:47:06.121Z,3.50
2019-06-01T16:49:36.141Z,4.40
2019-06-01T16:52:07.412Z,4.13
2019-06-01T16:54:37.775Z,4.70
2019-06-01T16:57:07.550Z,4.37
2019-06-01T16:59:37.060Z,4.60
2019-06-01T17:02:07.886Z,4.77
2019-06-01T17:04:37.731Z,4.60
2019-06-01T17:07:08.725Z,4.77
2019-06-01T17:09:39.061Z,4.00
2019-06-01T17:12:09.358Z,5.30
2019-06-01T17:14:39.584Z,5.30
2019-06-01T17:17:09.172Z,5.10
2019-06-01T17:19:39.439Z,5.53
2019-06-01T17:22:10.173Z,5.30
2019-06-01T17:24:39.657Z,4.80
2019-06-01T17:27:09.213Z,4.30
2019-06-01T17:29:39.477Z,4.60
2019-06-01T17:32:23.041Z,4.80
2019-06-01T17:34:43.586Z,4.37
2019-06-01T17:37:13.130Z,5.10
2019-06-01T17:39:42.697Z,5.07
2019-06-01T17:42:12.705Z,4.63
2019-06-01T17:44:42.318Z,4.30
2019-06-01T17:47:12.224Z,4.20
2019-06-01T17:49:41.791Z,4.27
2019-06-01T17:52:11.887Z,4.60
2019-06-01T17:54:41.394Z,4.30
2019-06-01T17:57:11.472Z,4.50
2019-06-01T17:59:41.043Z,4.33
2019-06-01T18:02:11.920Z,4.33
2019-06-01T18:04:41.520Z,3.90
2019-06-01T18:07:12.061Z,4.13
2019-06-01T18:09:41.656Z,4.60
2019-06-01T18:12:12.290Z,4.57
2019-06-01T18:14:41.812Z,4.10
2019-06-01T18:17:12.384Z,4.20
2019-06-01T18:19:42.351Z,4.40
2019-06-01T18:22:12.960Z,5.70
2019-06-01T18:24:42.585Z,4.07
2019-06-01T18:27:12.677Z,3.90
2019-06-01T18:29:48.324Z,3.90
2019-06-01T18:32:13.855Z,3.27
2019-06-01T18:34:43.567Z,5.65
2019-06-01T18:37:13.460Z,3.90
2019-06-01T18:39:47.928Z,3.53
2019-06-01T18:42:18.651Z,3.10
2019-06-01T18:44:46.704Z,3.60
2019-06-01T18:47:31.413Z,3.60
2019-06-01T18:49:47.738Z,3.90
2019-06-01T18:52:17.309Z,3.40
2019-06-01T18:54:47.084Z,3.50
2019-06-01T18:57:21.176Z,3.23
2019-06-01T18:59:48.281Z,3.50
2019-06-01T19:02:17.758Z,3.20
2019-06-01T19:04:47.342Z,2.90
2019-06-01T19:07:16.865Z,2.77
2019-06-01T19:09:46.474Z,2.80
2019-06-01T19:12:16.178Z,2.70
2019-06-01T19:14:45.652Z,2.73
2019-06-01T19:17:16.455Z,2.60
2019-06-01T19:19:46.331Z,2.40
2019-06-01T19:22:16.734Z,2.40
2019-06-01T19:24:46.244Z,2.30
2019-06-01T19:27:17.025Z,2.17
2019-06-01T19:29:46.554Z,2.20
2019-06-01T19:32:20.854Z,2.20
2019-06-01T19:34:48.009Z,2.20
2019-06-01T19:37:18.070Z,2.43
2019-06-01T19:39:48.999Z,2.45
2019-06-01T19:42:18.664Z,2.33
2019-06-01T19:44:48.576Z,2.50
2019-06-01T19:47:19.184Z,2.58
2019-06-01T19:49:48.895Z,2.37
2019-06-01T19:52:19.046Z,2.47
2019-06-01T19:54:50.654Z,2.20
2019-06-01T19:57:24.051Z,2.70
2019-06-01T19:59:54.698Z,2.47
2019-06-01T20:02:33.589Z,2.47
2019-06-01T20:04:56.607Z,2.85
2019-06-01T20:07:26.038Z,2.60
2019-06-01T20:09:55.974Z,2.60
2019-06-01T20:12:25.955Z,2.70
2019-06-01T20:14:55.492Z,2.80
2019-06-01T20:17:26.554Z,2.50
2019-06-01T20:19:56.339Z,2.85
2019-06-01T20:22:26.020Z,2.60
2019-06-01T20:24:55.601Z,3.00
2019-06-01T20:27:27.155Z,3.20
2019-06-01T20:29:56.664Z,3.30
2019-06-01T20:32:27.862Z,3.13
2019-06-01T20:34:57.780Z,3.10
2019-06-01T20:37:27.460Z,2.90
2019-06-01T20:39:57.062Z,2.90
2019-06-01T20:42:32.620Z,3.20
2019-06-01T20:44:58.829Z,2.50
2019-06-01T20:47:28.334Z,2.83
2019-06-01T20:49:58.052Z,3.27
2019-06-01T20:52:28.454Z,3.40
2019-06-01T20:54:57.961Z,3.40
2019-06-01T20:57:27.590Z,3.58
2019-06-01T20:59:57.150Z,3.13
2019-06-01T21:02:26.681Z,3.20
2019-06-01T21:04:56.189Z,2.90
2019-06-01T21:07:25.653Z,2.93
2019-06-01T21:09:58.116Z,3.35
2019-06-01T21:12:44.448Z,3.60
2019-06-01T21:14:58.938Z,3.57
2019-06-01T21:17:29.781Z,3.40
2019-06-01T21:20:04.218Z,2.87
2019-06-01T21:22:30.702Z,3.13
2019-06-01T21:25:00.412Z,2.87
2019-06-01T21:27:30.455Z,2.97
2019-06-01T21:30:00.180Z,3.10
2019-06-01T21:32:29.709Z,3.67
2019-06-01T21:34:59.378Z,4.70
2019-06-01T21:37:29.161Z,4.47
2019-06-01T21:39:58.738Z,4.10
2019-06-01T21:42:28.344Z,3.87
2019-06-01T21:45:00.986Z,3.30
2019-06-01T21:47:35.281Z,3.80
2019-06-01T21:50:05.254Z,3.77
2019-06-01T21:52:35.098Z,3.80
2019-06-01T21:55:04.697Z,3.83
2019-06-01T21:57:36.152Z,4.37
2019-06-01T22:00:09.691Z,3.95
2019-06-01T22:02:40.253Z,3.53
2019-06-01T22:05:10.442Z,3.60
2019-06-01T22:07:39.937Z,3.70
2019-06-01T22:10:09.804Z,4.63
2019-06-01T22:12:39.834Z,6.07
2019-06-01T22:15:10.165Z,5.47
2019-06-01T22:17:45.027Z,6.73
2019-06-01T22:20:14.645Z,7.92
2019-06-01T22:22:44.150Z,9.63
2019-06-01T22:25:13.893Z,11.23
2019-06-01T22:27:43.917Z,12.27
2019-06-01T22:30:15.275Z,11.73
2019-06-01T22:32:44.781Z,12.60
2019-06-01T22:35:18.716Z,12.30
2019-06-01T22:37:48.289Z,11.90
2019-06-01T22:40:19.378Z,11.30
2019-06-01T22:42:49.290Z,10.80
2019-06-01T22:45:20.105Z,10.13
2019-06-01T22:47:49.972Z,10.20
2019-06-01T22:50:22.795Z,9.80
2019-06-01T22:52:52.249Z,9.53
2019-06-01T22:55:22.046Z,9.45
2019-06-01T22:57:51.734Z,8.40
2019-06-01T23:00:21.530Z,8.47
2019-06-01T23:02:51.160Z,7.97
2019-06-01T23:05:24.945Z,7.40
2019-06-01T23:07:54.613Z,6.85
2019-06-01T23:10:29.532Z,7.33
2019-06-01T23:12:55.741Z,7.00
2019-06-01T23:15:25.689Z,7.83
2019-06-01T23:17:55.267Z,7.27
2019-06-01T23:20:28.042Z,7.13
2019-06-01T23:23:03.733Z,7.03
2019-06-01T23:25:35.461Z,7.50
2019-06-01T23:28:07.893Z,7.10
2019-06-01T23:30:37.986Z,7.17
2019-06-01T23:33:08.760Z,7.77
2019-06-01T23:35:38.479Z,7.83
2019-06-01T23:38:07.950Z,8.10
2019-06-01T23:40:37.482Z,9.10
2019-06-01T23:43:07.173Z,9.50
2019-06-01T23:45:36.757Z,9.10
2019-06-01T23:48:06.339Z,9.60
2019-06-01T23:50:36.269Z,9.85
2019-06-01T23:53:13.681Z,10.13
2019-06-01T23:55:37.111Z,10.17
2019-06-01T23:58:06.905Z,9.37
